Sacramento, California
Traffic Map
Current Weather Conditions
Sacramento, California
Clear
Clear
77°
Feels Like: 78°
Wind Chill: 77° Ceiling: Unl
Heat Index: 78° Visibility: 10mi
Dew Point: 45° Wind: 6mph
Humidity: 32% Direction: ° ()
Pressure: 29.84in Gusts: 0mph
Raw Report DataKSAC 020953Z AUTO VRB05KT 10SM CLR 25/07 A2984 RMK AO2 SLP103 T02500072
Traffic Incident Summary
Active as of:
Severity:
Category:
InformationThere was an issue retrieving the traffic information for this location. Please try a different location or try again shortly.
Advertisements
Track Severe Weather on mobile